createdAt,value
2023-03-16T00:01:13.958Z,10.73
2023-03-16T00:02:46.766Z,11.30
2023-03-16T00:04:18.505Z,9.38
2023-03-16T00:05:53.891Z,9.32
2023-03-16T00:07:26.683Z,9.48
2023-03-16T00:09:00.755Z,10.32
2023-03-16T00:10:33.487Z,9.98
2023-03-16T00:12:05.476Z,9.95
2023-03-16T00:13:38.168Z,9.77
2023-03-16T00:15:11.330Z,11.38
2023-03-16T00:16:44.042Z,9.30
2023-03-16T00:18:16.787Z,11.63
2023-03-16T00:19:51.596Z,12.23
2023-03-16T00:21:24.298Z,10.20
2023-03-16T00:22:56.993Z,11.07
2023-03-16T00:24:31.830Z,10.55
2023-03-16T00:26:06.773Z,11.43
2023-03-16T00:27:39.697Z,10.57
2023-03-16T00:29:12.423Z,12.55
2023-03-16T00:30:47.329Z,10.70
2023-03-16T00:32:22.347Z,9.90
2023-03-16T00:33:55.020Z,10.32
2023-03-16T00:35:27.919Z,13.90
2023-03-16T00:37:00.585Z,14.02
2023-03-16T00:38:36.264Z,11.23
2023-03-16T00:40:13.942Z,10.85
2023-03-16T00:41:46.676Z,10.20
2023-03-16T00:43:19.355Z,14.73
2023-03-16T00:44:57.016Z,12.80
2023-03-16T00:46:29.720Z,13.35
2023-03-16T00:48:01.948Z,14.43
2023-03-16T00:49:35.483Z,14.30
2023-03-16T00:51:10.075Z,15.30
2023-03-16T00:52:43.140Z,14.68
2023-03-16T00:54:14.898Z,16.25
2023-03-16T00:55:48.943Z,14.32
2023-03-16T00:57:24.628Z,14.60
2023-03-16T00:58:58.171Z,19.65
2023-03-16T01:00:30.977Z,19.67
2023-03-16T01:02:03.659Z,13.75
2023-03-16T01:03:36.830Z,14.07
2023-03-16T01:05:10.539Z,14.90
2023-03-16T01:06:43.254Z,15.10
2023-03-16T01:08:16.326Z,15.77
2023-03-16T01:09:48.064Z,16.98
2023-03-16T01:11:24.433Z,13.55
2023-03-16T01:12:57.101Z,13.07
2023-03-16T01:14:28.836Z,14.32
2023-03-16T01:16:02.831Z,12.98
2023-03-16T01:17:35.524Z,15.23
2023-03-16T01:19:08.233Z,14.20
2023-03-16T01:20:43.378Z,13.52
2023-03-16T01:22:15.840Z,14.98
2023-03-16T01:23:48.718Z,15.13
2023-03-16T01:25:21.557Z,14.77
2023-03-16T01:26:55.588Z,11.93
2023-03-16T01:28:31.797Z,13.73
2023-03-16T01:30:06.080Z,13.02
2023-03-16T01:31:38.807Z,14.02
2023-03-16T01:33:11.493Z,15.93
2023-03-16T01:34:44.170Z,17.65
2023-03-16T01:36:18.623Z,16.65
2023-03-16T01:37:51.405Z,15.85
2023-03-16T01:39:23.341Z,17.88
2023-03-16T01:40:56.506Z,14.25
2023-03-16T01:42:30.563Z,14.85
2023-03-16T01:44:03.517Z,13.93
2023-03-16T01:46:18.113Z,15.85
2023-03-16T01:47:50.897Z,14.60
2023-03-16T01:49:26.675Z,16.48
2023-03-16T01:50:59.390Z,18.63
2023-03-16T01:52:36.789Z,14.75
2023-03-16T01:54:15.642Z,16.52
2023-03-16T01:55:49.209Z,15.27
2023-03-16T01:57:24.353Z,17.30
2023-03-16T01:59:00.413Z,17.08
2023-03-16T02:00:33.751Z,17.90
2023-03-16T02:02:08.579Z,16.60
2023-03-16T02:03:42.999Z,16.27
2023-03-16T02:05:20.647Z,16.20
2023-03-16T02:06:54.885Z,15.20
2023-03-16T02:08:29.020Z,17.30
2023-03-16T02:10:03.911Z,17.80
2023-03-16T02:11:36.474Z,15.32
2023-03-16T02:13:09.968Z,17.60
2023-03-16T02:14:44.054Z,17.17
2023-03-16T02:16:19.326Z,13.45
2023-03-16T02:17:52.500Z,16.67
2023-03-16T02:19:35.149Z,17.33
2023-03-16T02:21:16.220Z,17.33
2023-03-16T02:22:53.997Z,17.73
2023-03-16T02:24:27.244Z,16.13
2023-03-16T02:26:04.603Z,16.08
2023-03-16T02:27:42.663Z,18.35
2023-03-16T02:29:27.774Z,18.17
2023-03-16T02:31:02.742Z,15.45
2023-03-16T02:32:36.160Z,19.98
2023-03-16T02:34:10.292Z,17.33
2023-03-16T02:35:43.051Z,13.40
2023-03-16T02:37:15.128Z,18.20
2023-03-16T02:38:48.027Z,12.65
2023-03-16T02:40:24.782Z,16.45
2023-03-16T02:41:57.960Z,15.52
2023-03-16T02:43:33.234Z,16.40
2023-03-16T02:45:07.209Z,16.08
2023-03-16T02:46:43.424Z,15.02
2023-03-16T02:48:22.235Z,15.98
2023-03-16T02:49:54.949Z,19.08
2023-03-16T02:51:27.627Z,15.48
2023-03-16T02:53:00.616Z,16.42
2023-03-16T02:54:33.559Z,14.88
2023-03-16T02:56:05.661Z,14.75
2023-03-16T02:57:38.362Z,13.85
2023-03-16T02:59:12.058Z,16.77
2023-03-16T03:00:45.606Z,14.68
2023-03-16T03:02:19.651Z,14.45
2023-03-16T03:03:52.356Z,11.13
2023-03-16T03:05:25.332Z,14.95
2023-03-16T03:07:03.878Z,12.05
2023-03-16T03:08:36.930Z,12.40
2023-03-16T03:10:10.948Z,13.05
2023-03-16T03:11:43.638Z,11.20
2023-03-16T03:13:16.366Z,11.43
2023-03-16T03:14:48.669Z,12.82
2023-03-16T03:16:21.903Z,11.95
2023-03-16T03:17:56.110Z,12.35
2023-03-16T03:19:28.833Z,14.10
2023-03-16T03:21:00.546Z,13.90
2023-03-16T03:22:33.822Z,13.57
2023-03-16T03:24:07.930Z,10.68
2023-03-16T03:25:40.647Z,12.10
2023-03-16T03:27:12.414Z,13.07
2023-03-16T03:28:46.124Z,11.52
2023-03-16T03:30:20.161Z,11.23
2023-03-16T03:31:52.884Z,13.40
2023-03-16T03:33:27.012Z,13.32
2023-03-16T03:34:59.849Z,13.23
2023-03-16T03:36:32.545Z,11.20
2023-03-16T03:38:05.219Z,11.60
2023-03-16T03:39:37.016Z,11.50
2023-03-16T03:41:09.786Z,12.07
2023-03-16T03:42:42.436Z,11.20
2023-03-16T03:44:15.129Z,11.18
2023-03-16T03:45:47.935Z,9.88
2023-03-16T03:47:20.879Z,11.13
2023-03-16T03:48:54.908Z,11.77
2023-03-16T03:50:27.877Z,10.90
2023-03-16T03:52:02.638Z,11.95
2023-03-16T03:53:35.355Z,10.35
2023-03-16T03:55:08.872Z,10.35
2023-03-16T03:56:41.561Z,12.40
2023-03-16T03:58:14.306Z,12.80
2023-03-16T03:59:46.978Z,10.77
2023-03-16T04:01:18.726Z,12.45
2023-03-16T04:02:51.519Z,12.55
2023-03-16T04:04:25.689Z,13.48
2023-03-16T04:05:58.380Z,11.55
2023-03-16T04:07:31.077Z,12.27
2023-03-16T04:09:03.983Z,11.52
2023-03-16T04:10:36.708Z,12.10
2023-03-16T04:12:09.951Z,10.45
2023-03-16T04:13:42.648Z,11.35
2023-03-16T04:15:15.390Z,11.43
2023-03-16T04:16:48.096Z,11.13
2023-03-16T04:18:19.840Z,12.15
2023-03-16T04:19:53.878Z,12.68
2023-03-16T04:21:26.811Z,12.95
2023-03-16T04:22:59.535Z,13.65
2023-03-16T04:24:34.177Z,12.27
2023-03-16T04:26:06.871Z,12.30
2023-03-16T04:27:39.942Z,12.55
2023-03-16T04:29:14.115Z,13.88
2023-03-16T04:30:46.885Z,11.70
2023-03-16T04:32:18.623Z,11.77
2023-03-16T04:33:54.470Z,13.10
2023-03-16T04:35:28.717Z,10.63
2023-03-16T04:37:02.172Z,14.55
2023-03-16T04:38:35.552Z,11.05
2023-03-16T04:40:15.457Z,11.70
2023-03-16T04:41:48.158Z,11.52
2023-03-16T04:43:21.016Z,13.93
2023-03-16T04:44:53.703Z,12.82
2023-03-16T04:46:27.391Z,11.85
2023-03-16T04:48:00.821Z,11.55
2023-03-16T04:49:32.575Z,16.20
2023-03-16T04:51:07.204Z,15.65
2023-03-16T04:52:39.988Z,11.63
2023-03-16T04:54:12.735Z,11.15
2023-03-16T04:55:45.163Z,12.32
2023-03-16T04:57:19.287Z,13.95
2023-03-16T04:58:51.269Z,12.93
2023-03-16T05:00:24.467Z,12.13
2023-03-16T05:01:57.205Z,13.30
2023-03-16T05:03:29.038Z,12.18
2023-03-16T05:05:01.745Z,12.32
2023-03-16T05:06:35.824Z,15.65
2023-03-16T05:08:10.709Z,16.85
2023-03-16T05:09:43.648Z,16.20
2023-03-16T05:11:16.339Z,14.60
2023-03-16T05:12:48.144Z,16.38
2023-03-16T05:14:20.904Z,14.02
2023-03-16T05:15:54.484Z,17.13
2023-03-16T05:17:27.181Z,13.75
2023-03-16T05:19:00.226Z,15.48
2023-03-16T05:20:32.931Z,16.35
2023-03-16T05:22:06.578Z,11.48
2023-03-16T05:23:39.285Z,14.85
2023-03-16T05:25:14.921Z,15.23
2023-03-16T05:26:47.714Z,12.77
2023-03-16T05:28:20.411Z,15.15
2023-03-16T05:29:52.288Z,15.98
2023-03-16T05:31:26.510Z,16.05
2023-03-16T05:32:59.339Z,17.52
2023-03-16T05:34:32.243Z,15.77
2023-03-16T05:36:05.479Z,14.32
2023-03-16T05:37:39.924Z,18.60
2023-03-16T05:39:13.188Z,16.95
2023-03-16T05:40:46.152Z,14.63
2023-03-16T05:42:19.735Z,15.77
2023-03-16T05:43:53.016Z,14.98
2023-03-16T05:45:26.031Z,17.90
2023-03-16T05:46:58.814Z,15.15
2023-03-16T05:48:31.538Z,15.95
2023-03-16T05:50:04.995Z,15.35
2023-03-16T05:51:37.688Z,13.48
2023-03-16T05:53:11.708Z,15.93
2023-03-16T05:54:44.390Z,17.15
2023-03-16T05:56:17.196Z,15.07
2023-03-16T05:57:49.911Z,15.18
2023-03-16T05:59:22.606Z,14.43
2023-03-16T06:00:55.629Z,13.48
2023-03-16T06:02:28.525Z,15.57
2023-03-16T06:04:02.902Z,15.65
2023-03-16T06:05:35.682Z,15.73
2023-03-16T06:07:07.933Z,14.27
2023-03-16T06:08:42.079Z,14.20
2023-03-16T06:10:14.254Z,13.07
2023-03-16T06:11:46.943Z,14.43
2023-03-16T06:13:19.722Z,13.27
2023-03-16T06:14:51.491Z,13.60
2023-03-16T06:16:24.304Z,15.13
2023-03-16T06:17:57.035Z,20.10
2023-03-16T06:19:29.782Z,15.48
2023-03-16T06:21:02.520Z,15.48
2023-03-16T06:22:35.229Z,23.48
2023-03-16T06:24:09.781Z,19.65
2023-03-16T06:25:43.006Z,20.27
2023-03-16T06:27:15.704Z,18.20
2023-03-16T06:28:49.570Z,19.05
2023-03-16T06:30:22.436Z,19.15
2023-03-16T06:31:55.153Z,21.23
2023-03-16T06:33:28.051Z,14.35
2023-03-16T06:35:02.192Z,14.15
2023-03-16T06:36:34.921Z,15.95
2023-03-16T06:38:07.602Z,18.58
2023-03-16T06:39:41.939Z,19.92
2023-03-16T06:41:15.318Z,21.00
2023-03-16T06:42:48.270Z,25.15
2023-03-16T06:44:21.001Z,20.92
2023-03-16T06:45:53.765Z,20.38
2023-03-16T06:47:27.211Z,22.80
2023-03-16T06:49:00.906Z,17.25
2023-03-16T06:50:33.605Z,19.98
2023-03-16T06:52:06.358Z,16.75
2023-03-16T06:53:39.116Z,15.73
2023-03-16T06:55:14.389Z,17.10
2023-03-16T06:56:47.086Z,15.13
2023-03-16T06:58:19.839Z,18.60
2023-03-16T06:59:52.540Z,16.08
2023-03-16T07:01:25.315Z,16.63
2023-03-16T07:03:00.059Z,15.77
2023-03-16T07:04:34.005Z,16.73
2023-03-16T07:06:08.625Z,15.18
2023-03-16T07:07:42.487Z,13.88
2023-03-16T07:09:15.238Z,15.18
2023-03-16T07:10:50.982Z,13.88
2023-03-16T07:12:23.667Z,16.98
2023-03-16T07:13:56.355Z,16.77
2023-03-16T07:15:29.126Z,15.30
2023-03-16T07:17:02.601Z,14.35
2023-03-16T07:18:37.830Z,13.15
2023-03-16T07:20:12.641Z,17.58
2023-03-16T07:21:45.326Z,15.13
2023-03-16T07:23:18.063Z,14.35
2023-03-16T07:24:55.978Z,15.38
2023-03-16T07:26:30.031Z,14.13
2023-03-16T07:28:03.323Z,14.73
2023-03-16T07:29:36.352Z,16.50
2023-03-16T07:31:10.012Z,16.05
2023-03-16T07:32:43.145Z,14.50
2023-03-16T07:34:16.134Z,17.02
2023-03-16T07:35:48.861Z,16.63
2023-03-16T07:37:25.371Z,17.55
2023-03-16T07:38:58.692Z,13.88
2023-03-16T07:40:32.198Z,14.35
2023-03-16T07:42:06.463Z,14.38
2023-03-16T07:43:39.170Z,14.60
2023-03-16T07:45:14.313Z,14.10
2023-03-16T07:46:47.017Z,14.02
2023-03-16T07:48:20.793Z,12.20
2023-03-16T07:49:53.520Z,12.90
2023-03-16T07:51:26.257Z,12.15
2023-03-16T07:52:58.941Z,11.90
2023-03-16T07:54:31.641Z,10.15
2023-03-16T07:56:04.693Z,11.50
2023-03-16T07:57:39.235Z,13.65
2023-03-16T07:59:12.323Z,10.68
2023-03-16T08:00:45.030Z,11.45
2023-03-16T08:02:19.988Z,12.30
2023-03-16T08:03:53.451Z,11.18
2023-03-16T08:05:27.787Z,10.27
2023-03-16T08:07:02.060Z,10.55
2023-03-16T08:08:35.854Z,10.43
2023-03-16T08:10:09.720Z,12.30
2023-03-16T08:11:42.712Z,9.93
2023-03-16T08:13:17.076Z,11.88
2023-03-16T08:14:49.838Z,12.13
2023-03-16T08:16:23.243Z,10.60
2023-03-16T08:17:55.948Z,11.52
2023-03-16T08:19:28.831Z,9.15
2023-03-16T08:21:01.514Z,10.25
2023-03-16T08:22:36.591Z,8.32
2023-03-16T08:24:09.410Z,9.40
2023-03-16T08:25:42.320Z,9.07
2023-03-16T08:27:16.019Z,8.25
2023-03-16T08:28:52.760Z,10.50
2023-03-16T08:30:26.933Z,8.30
2023-03-16T08:32:00.415Z,10.63
2023-03-16T08:33:33.113Z,12.27
2023-03-16T08:35:06.636Z,16.75
2023-03-16T08:36:39.593Z,13.95
2023-03-16T08:38:12.718Z,13.70
2023-03-16T08:39:45.408Z,12.38
2023-03-16T08:41:18.107Z,14.68
2023-03-16T08:42:51.011Z,14.88
2023-03-16T08:44:26.078Z,14.65
2023-03-16T08:45:59.079Z,15.85
2023-03-16T08:47:32.711Z,13.85
2023-03-16T08:49:06.775Z,10.60
2023-03-16T08:50:40.824Z,9.40
2023-03-16T08:52:13.821Z,11.30
2023-03-16T08:53:46.968Z,9.30
2023-03-16T08:55:19.885Z,11.05
2023-03-16T08:56:52.667Z,9.30
2023-03-16T08:58:25.993Z,9.87
2023-03-16T09:00:00.215Z,9.47
2023-03-16T09:01:33.956Z,11.97
2023-03-16T09:03:07.659Z,10.73
2023-03-16T09:04:40.464Z,9.50
2023-03-16T09:06:15.049Z,10.60
2023-03-16T09:07:48.950Z,8.55
2023-03-16T09:09:22.103Z,9.93
2023-03-16T09:11:00.386Z,11.38
2023-03-16T09:12:35.609Z,12.70
2023-03-16T09:14:08.698Z,15.00
2023-03-16T09:15:42.836Z,13.25
2023-03-16T09:17:15.754Z,9.50
2023-03-16T09:18:48.433Z,11.33
2023-03-16T09:20:25.930Z,16.37
2023-03-16T09:21:59.129Z,13.83
2023-03-16T09:23:33.671Z,15.45
2023-03-16T09:25:08.805Z,10.75
2023-03-16T09:26:42.587Z,9.70
2023-03-16T09:28:15.787Z,9.53
2023-03-16T09:29:49.375Z,10.97
2023-03-16T09:31:23.638Z,8.97
2023-03-16T09:32:56.595Z,9.90
2023-03-16T09:34:30.502Z,10.67
2023-03-16T09:36:04.510Z,9.13
2023-03-16T09:37:44.950Z,9.27
2023-03-16T09:39:19.534Z,8.93
2023-03-16T09:40:58.962Z,9.33
2023-03-16T09:42:37.412Z,10.27
2023-03-16T09:44:29.067Z,9.93
2023-03-16T09:46:09.196Z,10.37
2023-03-16T09:47:45.281Z,10.93
2023-03-16T09:49:21.292Z,10.60
2023-03-16T09:50:55.798Z,11.87
2023-03-16T09:52:36.513Z,10.43
2023-03-16T09:54:19.179Z,10.17
2023-03-16T09:55:56.174Z,10.23
2023-03-16T09:57:34.670Z,11.03
2023-03-16T09:59:12.015Z,9.87
2023-03-16T10:00:52.817Z,11.47
2023-03-16T10:02:48.526Z,10.37
2023-03-16T10:04:33.743Z,8.93
2023-03-16T10:06:11.029Z,11.40
2023-03-16T10:07:54.751Z,10.13
2023-03-16T10:09:34.904Z,10.47
2023-03-16T10:11:23.203Z,11.00
2023-03-16T10:13:00.220Z,10.43
2023-03-16T10:14:41.011Z,11.10
2023-03-16T10:16:19.517Z,10.90
2023-03-16T10:18:00.160Z,10.97
2023-03-16T10:19:38.448Z,10.13
2023-03-16T10:21:15.103Z,10.60
2023-03-16T10:22:50.740Z,10.30
2023-03-16T10:24:37.609Z,12.03
2023-03-16T10:26:15.018Z,12.00
2023-03-16T10:27:48.663Z,11.17
2023-03-16T10:29:21.577Z,10.83
2023-03-16T10:30:56.679Z,11.67
2023-03-16T10:32:34.578Z,11.10
2023-03-16T10:34:10.633Z,9.90
2023-03-16T10:35:48.236Z,11.03
2023-03-16T10:37:21.373Z,11.47
2023-03-16T10:38:58.723Z,10.60
2023-03-16T10:40:33.086Z,10.50
2023-03-16T10:42:11.228Z,10.03
2023-03-16T10:43:44.646Z,11.87
2023-03-16T10:45:28.623Z,10.73
2023-03-16T10:47:03.333Z,11.83
2023-03-16T10:48:36.072Z,11.33
2023-03-16T10:50:17.383Z,12.83
2023-03-16T10:51:51.218Z,12.83
2023-03-16T10:53:27.373Z,13.53
2023-03-16T10:55:02.638Z,12.30
2023-03-16T10:56:37.068Z,12.03
2023-03-16T10:58:10.259Z,12.17
2023-03-16T10:59:50.612Z,13.73
2023-03-16T11:01:26.939Z,13.57
2023-03-16T11:03:01.142Z,11.87
2023-03-16T11:04:34.533Z,10.27
2023-03-16T11:06:20.323Z,12.17
2023-03-16T11:08:02.607Z,11.80
2023-03-16T11:09:37.181Z,11.63
2023-03-16T11:11:13.184Z,13.50
2023-03-16T11:12:49.503Z,13.63
2023-03-16T11:14:27.425Z,15.50
2023-03-16T11:16:05.180Z,13.23
2023-03-16T11:17:41.361Z,11.77
2023-03-16T11:19:20.805Z,12.57
2023-03-16T11:20:55.172Z,11.23
2023-03-16T11:22:30.042Z,12.27
2023-03-16T11:24:05.102Z,11.87
2023-03-16T11:25:46.828Z,12.37
2023-03-16T11:27:26.118Z,10.37
2023-03-16T11:29:03.575Z,11.23
2023-03-16T11:30:40.695Z,11.80
2023-03-16T11:32:20.347Z,12.03
2023-03-16T11:33:55.362Z,11.37
2023-03-16T11:35:49.476Z,15.57
2023-03-16T11:37:37.640Z,12.77
2023-03-16T11:39:18.170Z,11.60
2023-03-16T11:40:58.288Z,12.80
2023-03-16T11:42:35.380Z,11.73
2023-03-16T11:44:15.594Z,11.20
2023-03-16T11:45:53.081Z,11.07
2023-03-16T11:47:56.892Z,12.80
2023-03-16T11:49:56.749Z,11.47
2023-03-16T11:51:42.362Z,12.07
2023-03-16T11:53:24.156Z,12.43
2023-03-16T11:55:09.030Z,10.63
2023-03-16T11:56:47.539Z,11.80
2023-03-16T11:58:35.845Z,11.27
2023-03-16T12:00:25.561Z,13.40
2023-03-16T12:02:17.328Z,11.88
2023-03-16T12:04:05.309Z,12.83
2023-03-16T12:05:48.995Z,11.40
2023-03-16T12:07:35.323Z,11.00
2023-03-16T12:09:40.518Z,13.97
2023-03-16T12:11:19.370Z,10.03
2023-03-16T12:13:07.861Z,11.60
2023-03-16T12:14:45.989Z,12.00
2023-03-16T12:16:22.523Z,11.07
2023-03-16T12:17:58.460Z,9.73
2023-03-16T12:19:41.251Z,10.20
2023-03-16T12:21:18.597Z,8.70
2023-03-16T12:22:54.452Z,9.83
2023-03-16T12:24:32.380Z,9.57
2023-03-16T12:26:05.959Z,8.57
2023-03-16T12:27:41.357Z,10.50
2023-03-16T12:29:28.414Z,9.73
2023-03-16T12:31:10.234Z,8.27
2023-03-16T12:32:47.574Z,8.57
2023-03-16T12:34:27.712Z,8.73
2023-03-16T12:36:04.965Z,7.53
2023-03-16T12:37:45.879Z,8.73
2023-03-16T12:39:25.854Z,8.33
2023-03-16T12:41:18.138Z,6.73
2023-03-16T12:43:01.299Z,8.90
2023-03-16T12:44:40.460Z,8.17
2023-03-16T12:46:18.488Z,9.33
2023-03-16T12:47:59.486Z,7.63
2023-03-16T12:49:34.456Z,5.90
2023-03-16T12:51:07.184Z,5.83
2023-03-16T12:52:44.611Z,5.43
2023-03-16T12:54:22.008Z,5.73
2023-03-16T12:55:56.511Z,5.57
2023-03-16T12:57:31.958Z,8.37
2023-03-16T12:59:07.495Z,5.80
2023-03-16T13:00:42.563Z,7.40
2023-03-16T13:02:18.222Z,6.70
2023-03-16T13:03:59.455Z,6.03
2023-03-16T13:05:34.844Z,5.53
2023-03-16T13:07:11.832Z,5.50
2023-03-16T13:08:49.003Z,6.40
2023-03-16T13:10:22.187Z,5.23
2023-03-16T13:11:55.379Z,5.23
2023-03-16T13:13:29.467Z,5.07
2023-03-16T13:15:02.214Z,4.53
2023-03-16T13:16:37.418Z,4.90
2023-03-16T13:18:23.748Z,5.40
2023-03-16T13:20:08.045Z,6.53
2023-03-16T13:21:43.481Z,5.00
2023-03-16T13:23:25.414Z,13.70
2023-03-16T13:25:12.536Z,6.27
2023-03-16T13:26:47.691Z,5.70
2023-03-16T13:28:22.267Z,6.63
2023-03-16T13:29:59.281Z,4.30
2023-03-16T13:31:38.921Z,5.40
2023-03-16T13:33:20.688Z,3.90
2023-03-16T13:34:58.315Z,4.57
2023-03-16T13:36:33.412Z,4.33
2023-03-16T13:38:06.973Z,6.17
2023-03-16T13:39:40.559Z,4.53
2023-03-16T13:41:15.539Z,4.77
2023-03-16T13:42:52.722Z,6.50
2023-03-16T13:44:26.163Z,4.50
2023-03-16T13:46:01.053Z,4.77
2023-03-16T13:47:33.760Z,6.07
2023-03-16T13:49:06.447Z,7.07
2023-03-16T13:50:41.221Z,4.60
2023-03-16T13:52:20.881Z,5.57
2023-03-16T13:53:54.748Z,6.43
2023-03-16T13:55:33.733Z,5.47
2023-03-16T13:57:11.099Z,4.63
2023-03-16T13:58:48.284Z,5.40
2023-03-16T14:00:24.688Z,4.73
2023-03-16T14:02:01.669Z,4.47
2023-03-16T14:03:37.024Z,5.97
2023-03-16T14:05:12.541Z,5.37
2023-03-16T14:06:54.847Z,4.80
2023-03-16T14:08:27.929Z,5.27
2023-03-16T14:10:00.814Z,4.87
2023-03-16T14:11:33.681Z,4.53
2023-03-16T14:13:10.844Z,5.60
2023-03-16T14:14:46.724Z,6.30
2023-03-16T14:16:20.713Z,4.27
2023-03-16T14:17:56.670Z,4.97
2023-03-16T14:19:35.887Z,6.57
2023-03-16T14:21:11.533Z,4.47
2023-03-16T14:22:44.737Z,5.60
2023-03-16T14:24:30.704Z,4.20
2023-03-16T14:26:05.376Z,5.23
2023-03-16T14:27:46.776Z,4.83
2023-03-16T14:29:24.700Z,5.63
2023-03-16T14:31:05.258Z,4.90
2023-03-16T14:32:38.165Z,4.07
2023-03-16T14:34:28.782Z,5.13
2023-03-16T14:36:11.186Z,4.50
2023-03-16T14:37:44.809Z,4.90
2023-03-16T14:39:21.895Z,5.77
2023-03-16T14:40:57.436Z,4.30
2023-03-16T14:42:31.840Z,4.13
2023-03-16T14:44:05.603Z,3.83
2023-03-16T14:45:38.661Z,4.83
2023-03-16T14:47:20.694Z,5.23
2023-03-16T14:48:53.700Z,4.57
2023-03-16T14:50:27.731Z,4.67
2023-03-16T14:52:03.051Z,6.87
2023-03-16T14:53:35.755Z,6.33
2023-03-16T14:55:14.476Z,5.33
2023-03-16T14:56:49.848Z,5.73
2023-03-16T14:58:23.741Z,5.00
2023-03-16T14:59:56.543Z,4.87
2023-03-16T15:01:29.390Z,5.57
2023-03-16T15:03:06.167Z,6.43
2023-03-16T15:04:38.904Z,6.07
2023-03-16T15:06:13.001Z,7.83
2023-03-16T15:07:46.330Z,7.97
2023-03-16T15:09:34.490Z,9.13
2023-03-16T15:11:07.810Z,5.17
2023-03-16T15:12:41.297Z,6.17
2023-03-16T15:14:36.701Z,6.87
2023-03-16T15:16:12.653Z,5.60
2023-03-16T15:17:46.247Z,6.60
2023-03-16T15:19:18.929Z,7.23
2023-03-16T15:20:53.831Z,6.90
2023-03-16T15:22:31.467Z,7.00
2023-03-16T15:24:04.337Z,6.50
2023-03-16T15:25:39.164Z,7.17
2023-03-16T15:27:20.993Z,5.50
2023-03-16T15:28:54.082Z,5.80
2023-03-16T15:30:28.533Z,8.03
2023-03-16T15:32:01.463Z,5.23
2023-03-16T15:33:34.516Z,6.93
2023-03-16T15:35:08.021Z,4.90
2023-03-16T15:36:40.803Z,6.57
2023-03-16T15:38:17.788Z,6.53
2023-03-16T15:39:50.541Z,7.63
2023-03-16T15:41:24.933Z,5.30
2023-03-16T15:42:58.599Z,6.07
2023-03-16T15:44:31.553Z,6.13
2023-03-16T15:46:05.057Z,4.90
2023-03-16T15:47:37.760Z,5.20
2023-03-16T15:49:10.523Z,6.43
2023-03-16T15:50:48.253Z,5.10
2023-03-16T15:52:27.578Z,6.13
2023-03-16T15:54:04.286Z,5.83
2023-03-16T15:55:39.375Z,5.73
2023-03-16T15:57:12.917Z,5.60
2023-03-16T15:58:47.454Z,6.23
2023-03-16T16:00:33.081Z,7.63
2023-03-16T16:02:27.955Z,5.40
2023-03-16T16:04:00.725Z,4.83
2023-03-16T16:05:34.298Z,5.97
2023-03-16T16:07:10.782Z,3.97
2023-03-16T16:08:43.528Z,4.30
2023-03-16T16:10:18.493Z,4.60
2023-03-16T16:11:51.545Z,4.47
2023-03-16T16:13:37.547Z,6.13
2023-03-16T16:15:21.601Z,6.30
2023-03-16T16:16:55.037Z,6.70
2023-03-16T16:18:31.664Z,7.13
2023-03-16T16:20:18.424Z,9.87
2023-03-16T16:21:51.168Z,5.40
2023-03-16T16:23:24.921Z,5.73
2023-03-16T16:24:58.322Z,6.47
2023-03-16T16:26:54.885Z,5.10
2023-03-16T16:28:31.489Z,3.93
2023-03-16T16:30:15.413Z,6.30
2023-03-16T16:31:48.143Z,4.67
2023-03-16T16:33:22.828Z,7.00
2023-03-16T16:35:04.227Z,3.97
2023-03-16T16:36:37.595Z,5.17
2023-03-16T16:38:10.275Z,5.33
2023-03-16T16:39:42.973Z,4.67
2023-03-16T16:41:25.546Z,5.80
2023-03-16T16:43:05.657Z,4.63
2023-03-16T16:44:38.357Z,5.27
2023-03-16T16:46:15.425Z,4.75
2023-03-16T16:47:51.926Z,5.30
2023-03-16T16:49:27.973Z,5.83
2023-03-16T16:51:01.599Z,5.83
2023-03-16T16:52:34.292Z,4.93
2023-03-16T16:54:16.013Z,4.93
2023-03-16T16:55:48.717Z,4.10
2023-03-16T16:57:21.494Z,6.07
2023-03-16T16:58:56.215Z,5.32
2023-03-16T17:00:29.203Z,4.23
2023-03-16T17:02:03.367Z,5.22
2023-03-16T17:03:36.083Z,4.13
2023-03-16T17:05:16.684Z,4.78
2023-03-16T17:06:51.265Z,3.80
2023-03-16T17:08:24.489Z,4.40
2023-03-16T17:09:57.300Z,4.50
2023-03-16T17:11:32.130Z,4.00
2023-03-16T17:13:05.678Z,6.77
2023-03-16T17:14:39.709Z,5.70
2023-03-16T17:16:16.825Z,3.90
2023-03-16T17:17:50.189Z,5.10
2023-03-16T17:19:25.282Z,6.13
2023-03-16T17:20:58.200Z,5.30
2023-03-16T17:22:30.906Z,4.90
2023-03-16T17:24:04.575Z,5.80
2023-03-16T17:25:37.508Z,4.32
2023-03-16T17:27:14.198Z,6.85
2023-03-16T17:28:52.160Z,4.22
2023-03-16T17:30:28.486Z,5.93
2023-03-16T17:32:02.491Z,6.13
2023-03-16T17:33:35.572Z,8.05
2023-03-16T17:35:15.184Z,4.15
2023-03-16T17:36:48.472Z,5.65
2023-03-16T17:38:23.041Z,4.25
2023-03-16T17:39:57.529Z,4.45
2023-03-16T17:41:32.928Z,4.20
2023-03-16T17:43:12.978Z,5.15
2023-03-16T17:44:47.345Z,6.72
2023-03-16T17:46:24.463Z,4.63
2023-03-16T17:47:57.194Z,6.97
2023-03-16T17:49:30.714Z,4.50
2023-03-16T17:51:03.476Z,3.83
2023-03-16T17:52:37.135Z,6.63
2023-03-16T17:54:09.822Z,4.75
2023-03-16T17:55:43.223Z,4.57
2023-03-16T17:57:18.863Z,3.92
2023-03-16T17:58:56.829Z,3.72
2023-03-16T18:00:32.367Z,8.15
2023-03-16T18:02:24.689Z,4.20
2023-03-16T18:03:58.043Z,5.40
2023-03-16T18:05:33.145Z,6.63
2023-03-16T18:07:09.552Z,5.20
2023-03-16T18:08:42.247Z,5.50
2023-03-16T18:10:15.722Z,5.30
2023-03-16T18:11:50.311Z,5.63
2023-03-16T18:13:26.764Z,5.47
2023-03-16T18:14:59.458Z,5.38
2023-03-16T18:16:32.308Z,7.22
2023-03-16T18:18:08.134Z,5.88
2023-03-16T18:19:40.021Z,4.25
2023-03-16T18:21:19.087Z,4.90
2023-03-16T18:22:51.762Z,5.80
2023-03-16T18:24:26.605Z,5.32
2023-03-16T18:26:02.039Z,5.10
2023-03-16T18:27:34.720Z,5.03
2023-03-16T18:29:07.394Z,5.07
2023-03-16T18:30:42.223Z,6.15
2023-03-16T18:32:21.785Z,4.90
2023-03-16T18:33:57.526Z,3.50
2023-03-16T18:35:30.973Z,4.32
2023-03-16T18:37:06.115Z,3.72
2023-03-16T18:38:41.278Z,3.65
2023-03-16T18:40:17.369Z,4.60
2023-03-16T18:41:50.940Z,4.82
2023-03-16T18:43:27.243Z,4.18
2023-03-16T18:45:00.848Z,3.40
2023-03-16T18:46:35.771Z,4.70
2023-03-16T18:48:20.575Z,4.20
2023-03-16T18:49:54.589Z,4.53
2023-03-16T18:51:28.036Z,4.95
2023-03-16T18:53:00.747Z,3.90
2023-03-16T18:54:36.240Z,4.82
2023-03-16T18:56:18.037Z,5.50
2023-03-16T18:57:56.122Z,4.68
2023-03-16T18:59:28.839Z,4.75
2023-03-16T19:01:02.012Z,5.78
2023-03-16T19:02:38.739Z,5.10
2023-03-16T19:04:21.408Z,5.07
2023-03-16T19:05:56.937Z,5.47
2023-03-16T19:07:33.510Z,5.57
2023-03-16T19:09:08.853Z,5.00
2023-03-16T19:10:46.952Z,4.50
2023-03-16T19:12:21.813Z,8.68
2023-03-16T19:13:54.817Z,7.15
2023-03-16T19:15:30.454Z,5.35
2023-03-16T19:17:03.387Z,8.63
2023-03-16T19:18:41.910Z,7.65
2023-03-16T19:20:17.300Z,8.05
2023-03-16T19:21:53.589Z,10.05
2023-03-16T19:23:29.128Z,7.88
2023-03-16T19:25:02.200Z,8.68
2023-03-16T19:26:37.120Z,7.82
2023-03-16T19:28:14.824Z,7.13
2023-03-16T19:29:48.649Z,5.97
2023-03-16T19:31:26.355Z,5.18
2023-03-16T19:33:00.263Z,4.97
2023-03-16T19:34:33.023Z,5.80
2023-03-16T19:36:07.669Z,5.65
2023-03-16T19:37:40.759Z,7.85
2023-03-16T19:39:14.764Z,6.93
2023-03-16T19:40:48.742Z,10.02
2023-03-16T19:42:26.592Z,6.05
2023-03-16T19:44:04.701Z,6.75
2023-03-16T19:45:38.886Z,5.85
2023-03-16T19:47:24.634Z,6.82
2023-03-16T19:48:57.673Z,6.95
2023-03-16T19:50:30.532Z,5.10
2023-03-16T19:52:03.306Z,5.53
2023-03-16T19:53:37.327Z,6.28
2023-03-16T19:55:13.921Z,5.57
2023-03-16T19:56:46.655Z,4.55
2023-03-16T19:58:24.507Z,5.35
2023-03-16T19:59:58.505Z,4.45
2023-03-16T20:01:33.478Z,5.70
2023-03-16T20:03:06.450Z,5.20
2023-03-16T20:04:39.180Z,5.90
2023-03-16T20:06:14.509Z,6.35
2023-03-16T20:07:47.551Z,5.75
2023-03-16T20:09:22.078Z,6.55
2023-03-16T20:10:59.433Z,7.28
2023-03-16T20:12:32.718Z,6.50
2023-03-16T20:14:05.946Z,8.18
2023-03-16T20:15:38.864Z,6.20
2023-03-16T20:17:13.076Z,10.25
2023-03-16T20:18:47.031Z,6.15
2023-03-16T20:20:25.466Z,7.25
2023-03-16T20:21:58.203Z,5.72
2023-03-16T20:23:31.217Z,6.82
2023-03-16T20:25:06.281Z,4.78
2023-03-16T20:26:39.179Z,6.38
2023-03-16T20:28:18.609Z,7.82
2023-03-16T20:29:51.627Z,5.65
2023-03-16T20:31:26.664Z,6.03
2023-03-16T20:32:59.440Z,8.00
2023-03-16T20:34:33.426Z,7.55
2023-03-16T20:36:07.672Z,5.60
2023-03-16T20:37:40.533Z,6.15
2023-03-16T20:39:13.256Z,8.60
2023-03-16T20:40:49.189Z,7.28
2023-03-16T20:42:24.575Z,6.35
2023-03-16T20:44:00.206Z,6.25
2023-03-16T20:45:33.501Z,6.55
2023-03-16T20:47:07.026Z,7.18
2023-03-16T20:48:39.718Z,5.95